Bayport, New York
Current Conditions -  °F | °C
As of 8:56 AM on Friday 28 Nov 2014 (Local Time) from KISP Reporting Station
Few Clouds Few Clouds  
Wind Chill: 26°   Ceiling: Unl
Heat Index: 35°   Visibility: 10mi
Dew Point: 23°   Wind: 15mph
Humidity: 61%   Direction: 320°NW
Pressure: 30.12"   Gusts: 22mph
Location:  40.74°N, 73.06°W
Report Text: KISP 281356Z 32013G19KT 10SM FEW040 02/M05 A3012 RMK AO2 SLP198 T00171050
Loading
Personal Weather Stations






























Interactive Weather Map New forecast layout! Learn more

10-Day Weather Forecast

Advertisements
Track Severe Weather on mobile